sensor_id;sensor_type;location;lat;lon;timestamp;P1;durP1;ratioP1;P2;durP2;ratioP2
35110;SDS011;21290;50.158;8.658;2024-03-08T00:01:45;24.52;;;15.65;;
35110;SDS011;21290;50.158;8.658;2024-03-08T00:04:12;24.17;;;15.85;;
35110;SDS011;21290;50.158;8.658;2024-03-08T00:06:41;24.48;;;16.42;;
35110;SDS011;21290;50.158;8.658;2024-03-08T00:09:10;22.25;;;15.38;;
35110;SDS011;21290;50.158;8.658;2024-03-08T00:11:36;27.77;;;16.75;;
35110;SDS011;21290;50.158;8.658;2024-03-08T00:14:03;26.42;;;16.52;;
35110;SDS011;21290;50.158;8.658;2024-03-08T00:19:00;25.00;;;15.35;;
35110;SDS011;21290;50.158;8.658;2024-03-08T00:21:27;27.98;;;15.38;;
35110;SDS011;21290;50.158;8.658;2024-03-08T00:23:54;26.90;;;16.48;;
35110;SDS011;21290;50.158;8.658;2024-03-08T00:26:21;27.17;;;16.08;;
35110;SDS011;21290;50.158;8.658;2024-03-08T00:28:51;37.70;;;20.10;;
35110;SDS011;21290;50.158;8.658;2024-03-08T00:31:18;26.40;;;16.55;;
35110;SDS011;21290;50.158;8.658;2024-03-08T00:33:46;20.03;;;12.70;;
35110;SDS011;21290;50.158;8.658;2024-03-08T00:36:13;28.17;;;17.42;;
35110;SDS011;21290;50.158;8.658;2024-03-08T00:38:40;27.58;;;16.60;;
35110;SDS011;21290;50.158;8.658;2024-03-08T00:41:07;30.38;;;17.27;;
35110;SDS011;21290;50.158;8.658;2024-03-08T00:43:34;25.45;;;17.38;;
35110;SDS011;21290;50.158;8.658;2024-03-08T00:46:01;29.60;;;18.25;;
35110;SDS011;21290;50.158;8.658;2024-03-08T00:48:27;28.77;;;17.42;;
35110;SDS011;21290;50.158;8.658;2024-03-08T00:50:55;29.67;;;17.55;;
35110;SDS011;21290;50.158;8.658;2024-03-08T00:53:21;26.90;;;17.63;;
35110;SDS011;21290;50.158;8.658;2024-03-08T00:55:48;27.27;;;17.42;;
35110;SDS011;21290;50.158;8.658;2024-03-08T00:58:15;25.77;;;16.95;;
35110;SDS011;21290;50.158;8.658;2024-03-08T01:00:42;30.98;;;17.75;;
35110;SDS011;21290;50.158;8.658;2024-03-08T01:03:09;23.98;;;17.38;;
35110;SDS011;21290;50.158;8.658;2024-03-08T01:05:36;26.70;;;17.88;;
35110;SDS011;21290;50.158;8.658;2024-03-08T01:08:03;25.55;;;17.00;;
35110;SDS011;21290;50.158;8.658;2024-03-08T01:10:31;27.60;;;17.42;;
35110;SDS011;21290;50.158;8.658;2024-03-08T01:12:58;28.42;;;17.70;;
35110;SDS011;21290;50.158;8.658;2024-03-08T01:15:25;27.90;;;18.73;;
35110;SDS011;21290;50.158;8.658;2024-03-08T01:17:52;27.92;;;17.45;;
35110;SDS011;21290;50.158;8.658;2024-03-08T01:20:19;33.50;;;18.70;;
35110;SDS011;21290;50.158;8.658;2024-03-08T01:22:47;29.48;;;17.25;;
35110;SDS011;21290;50.158;8.658;2024-03-08T01:25:14;28.20;;;17.25;;
35110;SDS011;21290;50.158;8.658;2024-03-08T01:27:41;29.10;;;17.98;;
35110;SDS011;21290;50.158;8.658;2024-03-08T01:30:07;26.65;;;17.63;;
35110;SDS011;21290;50.158;8.658;2024-03-08T01:32:36;22.87;;;13.50;;
35110;SDS011;21290;50.158;8.658;2024-03-08T01:35:03;26.42;;;18.38;;
35110;SDS011;21290;50.158;8.658;2024-03-08T01:37:30;27.05;;;17.73;;
35110;SDS011;21290;50.158;8.658;2024-03-08T01:39:56;28.08;;;17.50;;
35110;SDS011;21290;50.158;8.658;2024-03-08T01:42:23;26.83;;;17.40;;
35110;SDS011;21290;50.158;8.658;2024-03-08T01:44:50;27.45;;;18.00;;
35110;SDS011;21290;50.158;8.658;2024-03-08T01:47:17;32.17;;;18.00;;
35110;SDS011;21290;50.158;8.658;2024-03-08T01:49:44;29.00;;;18.95;;
35110;SDS011;21290;50.158;8.658;2024-03-08T01:52:11;29.10;;;18.92;;
35110;SDS011;21290;50.158;8.658;2024-03-08T01:54:38;25.67;;;17.73;;
35110;SDS011;21290;50.158;8.658;2024-03-08T01:57:07;28.48;;;18.15;;
35110;SDS011;21290;50.158;8.658;2024-03-08T01:59:34;28.10;;;17.67;;
35110;SDS011;21290;50.158;8.658;2024-03-08T02:02:01;29.83;;;17.85;;
35110;SDS011;21290;50.158;8.658;2024-03-08T02:04:29;28.73;;;18.88;;
35110;SDS011;21290;50.158;8.658;2024-03-08T02:06:56;30.67;;;17.42;;
35110;SDS011;21290;50.158;8.658;2024-03-08T02:09:26;27.30;;;18.10;;
35110;SDS011;21290;50.158;8.658;2024-03-08T02:11:54;29.35;;;18.50;;
35110;SDS011;21290;50.158;8.658;2024-03-08T02:14:23;27.33;;;17.52;;
35110;SDS011;21290;50.158;8.658;2024-03-08T02:16:51;34.13;;;19.05;;
35110;SDS011;21290;50.158;8.658;2024-03-08T02:19:17;29.60;;;18.58;;
35110;SDS011;21290;50.158;8.658;2024-03-08T02:21:47;29.65;;;18.67;;
35110;SDS011;21290;50.158;8.658;2024-03-08T02:24:14;31.02;;;17.65;;
35110;SDS011;21290;50.158;8.658;2024-03-08T02:26:41;33.63;;;17.42;;
35110;SDS011;21290;50.158;8.658;2024-03-08T02:29:09;27.58;;;17.15;;
35110;SDS011;21290;50.158;8.658;2024-03-08T02:31:37;30.20;;;18.17;;
35110;SDS011;21290;50.158;8.658;2024-03-08T02:34:05;31.85;;;18.88;;
35110;SDS011;21290;50.158;8.658;2024-03-08T02:36:32;32.38;;;19.02;;
35110;SDS011;21290;50.158;8.658;2024-03-08T02:39:02;28.88;;;18.40;;
35110;SDS011;21290;50.158;8.658;2024-03-08T02:41:29;28.60;;;18.42;;
35110;SDS011;21290;50.158;8.658;2024-03-08T02:43:56;29.77;;;18.20;;
35110;SDS011;21290;50.158;8.658;2024-03-08T02:46:23;29.40;;;18.63;;
35110;SDS011;21290;50.158;8.658;2024-03-08T02:48:50;30.25;;;18.60;;
35110;SDS011;21290;50.158;8.658;2024-03-08T02:51:17;32.85;;;19.17;;
35110;SDS011;21290;50.158;8.658;2024-03-08T02:53:44;34.17;;;18.33;;
35110;SDS011;21290;50.158;8.658;2024-03-08T02:56:11;34.20;;;19.02;;
35110;SDS011;21290;50.158;8.658;2024-03-08T02:58:39;30.50;;;18.77;;
35110;SDS011;21290;50.158;8.658;2024-03-08T03:01:05;30.75;;;18.83;;
35110;SDS011;21290;50.158;8.658;2024-03-08T03:03:32;30.15;;;19.63;;
35110;SDS011;21290;50.158;8.658;2024-03-08T03:05:59;31.40;;;19.17;;
35110;SDS011;21290;50.158;8.658;2024-03-08T03:08:27;29.15;;;18.67;;
35110;SDS011;21290;50.158;8.658;2024-03-08T03:10:54;34.72;;;20.13;;
35110;SDS011;21290;50.158;8.658;2024-03-08T03:13:22;29.23;;;19.17;;
35110;SDS011;21290;50.158;8.658;2024-03-08T03:15:49;27.58;;;18.50;;
35110;SDS011;21290;50.158;8.658;2024-03-08T03:18:17;31.02;;;18.63;;
35110;SDS011;21290;50.158;8.658;2024-03-08T03:20:47;31.42;;;18.88;;
35110;SDS011;21290;50.158;8.658;2024-03-08T03:23:15;33.65;;;20.70;;
35110;SDS011;21290;50.158;8.658;2024-03-08T03:25:46;32.90;;;20.23;;
35110;SDS011;21290;50.158;8.658;2024-03-08T03:28:13;32.55;;;20.35;;
35110;SDS011;21290;50.158;8.658;2024-03-08T03:30:45;34.67;;;19.67;;
35110;SDS011;21290;50.158;8.658;2024-03-08T03:33:12;26.03;;;15.23;;
35110;SDS011;21290;50.158;8.658;2024-03-08T03:35:41;24.20;;;14.60;;
35110;SDS011;21290;50.158;8.658;2024-03-08T03:38:09;30.45;;;19.58;;
35110;SDS011;21290;50.158;8.658;2024-03-08T03:40:37;32.35;;;20.27;;
35110;SDS011;21290;50.158;8.658;2024-03-08T03:43:06;33.03;;;19.92;;
35110;SDS011;21290;50.158;8.658;2024-03-08T03:45:36;32.58;;;20.10;;
35110;SDS011;21290;50.158;8.658;2024-03-08T03:48:04;36.50;;;20.70;;
35110;SDS011;21290;50.158;8.658;2024-03-08T03:50:33;33.80;;;19.83;;
35110;SDS011;21290;50.158;8.658;2024-03-08T03:53:02;24.33;;;15.40;;
35110;SDS011;21290;50.158;8.658;2024-03-08T03:55:29;35.55;;;21.35;;
35110;SDS011;21290;50.158;8.658;2024-03-08T03:57:56;33.70;;;19.73;;
35110;SDS011;21290;50.158;8.658;2024-03-08T04:00:37;33.45;;;19.48;;
35110;SDS011;21290;50.158;8.658;2024-03-08T04:03:05;35.45;;;20.83;;
35110;SDS011;21290;50.158;8.658;2024-03-08T04:05:32;35.35;;;20.90;;
35110;SDS011;21290;50.158;8.658;2024-03-08T04:07:59;33.38;;;20.33;;
35110;SDS011;21290;50.158;8.658;2024-03-08T04:10:26;31.92;;;20.00;;
35110;SDS011;21290;50.158;8.658;2024-03-08T04:12:53;31.08;;;20.13;;
35110;SDS011;21290;50.158;8.658;2024-03-08T04:15:20;34.90;;;20.33;;
35110;SDS011;21290;50.158;8.658;2024-03-08T04:17:47;33.97;;;20.73;;
35110;SDS011;21290;50.158;8.658;2024-03-08T04:20:14;32.40;;;20.55;;
35110;SDS011;21290;50.158;8.658;2024-03-08T04:22:43;32.90;;;20.73;;
35110;SDS011;21290;50.158;8.658;2024-03-08T04:25:15;36.38;;;21.55;;
35110;SDS011;21290;50.158;8.658;2024-03-08T04:27:42;36.40;;;21.05;;
35110;SDS011;21290;50.158;8.658;2024-03-08T04:30:09;35.40;;;21.58;;
35110;SDS011;21290;50.158;8.658;2024-03-08T04:32:37;25.13;;;15.75;;
35110;SDS011;21290;50.158;8.658;2024-03-08T04:35:04;37.25;;;21.15;;
35110;SDS011;21290;50.158;8.658;2024-03-08T04:37:31;33.72;;;21.55;;
35110;SDS011;21290;50.158;8.658;2024-03-08T04:39:58;31.38;;;20.48;;
35110;SDS011;21290;50.158;8.658;2024-03-08T04:42:26;31.67;;;20.23;;
35110;SDS011;21290;50.158;8.658;2024-03-08T04:44:56;39.97;;;21.98;;
35110;SDS011;21290;50.158;8.658;2024-03-08T04:47:23;37.25;;;21.80;;
35110;SDS011;21290;50.158;8.658;2024-03-08T04:49:50;38.10;;;22.92;;
35110;SDS011;21290;50.158;8.658;2024-03-08T04:52:17;34.35;;;20.73;;
35110;SDS011;21290;50.158;8.658;2024-03-08T04:54:43;32.78;;;20.50;;
35110;SDS011;21290;50.158;8.658;2024-03-08T04:57:13;32.88;;;21.00;;
35110;SDS011;21290;50.158;8.658;2024-03-08T04:59:40;36.55;;;21.83;;
35110;SDS011;21290;50.158;8.658;2024-03-08T05:02:07;36.45;;;21.73;;
35110;SDS011;21290;50.158;8.658;2024-03-08T05:04:34;35.75;;;21.13;;
35110;SDS011;21290;50.158;8.658;2024-03-08T05:07:02;38.30;;;21.67;;
35110;SDS011;21290;50.158;8.658;2024-03-08T05:09:29;35.45;;;21.85;;
35110;SDS011;21290;50.158;8.658;2024-03-08T05:11:58;35.58;;;22.00;;
35110;SDS011;21290;50.158;8.658;2024-03-08T05:14:25;37.80;;;23.20;;
35110;SDS011;21290;50.158;8.658;2024-03-08T05:16:52;31.52;;;20.27;;
35110;SDS011;21290;50.158;8.658;2024-03-08T05:19:19;37.63;;;22.25;;
35110;SDS011;21290;50.158;8.658;2024-03-08T05:21:47;39.67;;;21.52;;
35110;SDS011;21290;50.158;8.658;2024-03-08T05:24:14;38.45;;;22.35;;
35110;SDS011;21290;50.158;8.658;2024-03-08T05:26:43;37.10;;;21.65;;
35110;SDS011;21290;50.158;8.658;2024-03-08T05:29:10;39.72;;;22.77;;
35110;SDS011;21290;50.158;8.658;2024-03-08T05:31:49;34.83;;;21.80;;
35110;SDS011;21290;50.158;8.658;2024-03-08T05:34:18;34.85;;;21.42;;
35110;SDS011;21290;50.158;8.658;2024-03-08T05:36:49;36.55;;;22.65;;
35110;SDS011;21290;50.158;8.658;2024-03-08T05:39:17;36.40;;;20.98;;
35110;SDS011;21290;50.158;8.658;2024-03-08T05:41:44;35.13;;;21.77;;
35110;SDS011;21290;50.158;8.658;2024-03-08T05:44:12;34.65;;;21.25;;
35110;SDS011;21290;50.158;8.658;2024-03-08T05:46:39;41.70;;;21.97;;
35110;SDS011;21290;50.158;8.658;2024-03-08T05:49:06;45.13;;;22.40;;
35110;SDS011;21290;50.158;8.658;2024-03-08T05:51:37;34.80;;;21.23;;
35110;SDS011;21290;50.158;8.658;2024-03-08T05:54:06;44.35;;;23.40;;
35110;SDS011;21290;50.158;8.658;2024-03-08T05:56:37;40.17;;;22.92;;
35110;SDS011;21290;50.158;8.658;2024-03-08T05:59:07;38.10;;;22.35;;
35110;SDS011;21290;50.158;8.658;2024-03-08T06:01:34;38.42;;;22.65;;
35110;SDS011;21290;50.158;8.658;2024-03-08T06:04:03;29.00;;;16.52;;
35110;SDS011;21290;50.158;8.658;2024-03-08T06:08:58;41.33;;;22.92;;
35110;SDS011;21290;50.158;8.658;2024-03-08T06:11:25;39.38;;;22.70;;
35110;SDS011;21290;50.158;8.658;2024-03-08T06:13:57;37.70;;;22.10;;
35110;SDS011;21290;50.158;8.658;2024-03-08T06:16:26;37.25;;;23.05;;
35110;SDS011;21290;50.158;8.658;2024-03-08T06:18:56;34.72;;;22.05;;
35110;SDS011;21290;50.158;8.658;2024-03-08T06:21:26;37.42;;;20.80;;
35110;SDS011;21290;50.158;8.658;2024-03-08T06:23:53;38.03;;;22.08;;
35110;SDS011;21290;50.158;8.658;2024-03-08T06:26:21;37.30;;;22.15;;
35110;SDS011;21290;50.158;8.658;2024-03-08T06:28:48;35.22;;;21.58;;
35110;SDS011;21290;50.158;8.658;2024-03-08T06:31:15;32.35;;;20.27;;
35110;SDS011;21290;50.158;8.658;2024-03-08T06:33:42;36.78;;;21.95;;
35110;SDS011;21290;50.158;8.658;2024-03-08T06:36:09;34.28;;;20.98;;
35110;SDS011;21290;50.158;8.658;2024-03-08T06:38:38;30.48;;;19.83;;
35110;SDS011;21290;50.158;8.658;2024-03-08T06:41:09;33.58;;;20.17;;
35110;SDS011;21290;50.158;8.658;2024-03-08T06:43:42;33.35;;;19.77;;
35110;SDS011;21290;50.158;8.658;2024-03-08T06:46:09;30.80;;;20.20;;
35110;SDS011;21290;50.158;8.658;2024-03-08T06:51:05;28.63;;;18.85;;
35110;SDS011;21290;50.158;8.658;2024-03-08T06:53:32;31.50;;;19.63;;
35110;SDS011;21290;50.158;8.658;2024-03-08T06:56:01;31.00;;;19.65;;
35110;SDS011;21290;50.158;8.658;2024-03-08T06:58:28;27.92;;;18.70;;
35110;SDS011;21290;50.158;8.658;2024-03-08T07:00:55;30.92;;;19.63;;
35110;SDS011;21290;50.158;8.658;2024-03-08T07:03:26;26.02;;;18.40;;
35110;SDS011;21290;50.158;8.658;2024-03-08T07:05:55;26.52;;;18.38;;
35110;SDS011;21290;50.158;8.658;2024-03-08T07:08:24;25.95;;;18.25;;
35110;SDS011;21290;50.158;8.658;2024-03-08T07:10:53;27.67;;;17.60;;
35110;SDS011;21290;50.158;8.658;2024-03-08T07:13:21;24.63;;;17.15;;
35110;SDS011;21290;50.158;8.658;2024-03-08T07:15:48;23.58;;;16.88;;
35110;SDS011;21290;50.158;8.658;2024-03-08T07:18:15;25.15;;;16.83;;
35110;SDS011;21290;50.158;8.658;2024-03-08T07:20:57;28.50;;;18.65;;
35110;SDS011;21290;50.158;8.658;2024-03-08T07:23:25;23.55;;;18.48;;
35110;SDS011;21290;50.158;8.658;2024-03-08T07:26:24;26.80;;;17.63;;
35110;SDS011;21290;50.158;8.658;2024-03-08T07:28:51;22.83;;;17.60;;
35110;SDS011;21290;50.158;8.658;2024-03-08T07:31:20;27.17;;;16.90;;
35110;SDS011;21290;50.158;8.658;2024-03-08T07:34:16;24.33;;;17.60;;
35110;SDS011;21290;50.158;8.658;2024-03-08T07:40:36;22.38;;;17.48;;
35110;SDS011;21290;50.158;8.658;2024-03-08T07:50:29;28.15;;;21.80;;
35110;SDS011;21290;50.158;8.658;2024-03-08T07:52:56;26.17;;;19.92;;
35110;SDS011;21290;50.158;8.658;2024-03-08T07:55:22;34.63;;;18.95;;
35110;SDS011;21290;50.158;8.658;2024-03-08T07:57:50;23.30;;;18.70;;
35110;SDS011;21290;50.158;8.658;2024-03-08T08:00:17;22.55;;;17.88;;
35110;SDS011;21290;50.158;8.658;2024-03-08T08:02:47;24.52;;;17.70;;
35110;SDS011;21290;50.158;8.658;2024-03-08T08:05:30;24.52;;;17.95;;
35110;SDS011;21290;50.158;8.658;2024-03-08T08:08:52;24.85;;;17.45;;
35110;SDS011;21290;50.158;8.658;2024-03-08T08:11:41;19.73;;;16.85;;
35110;SDS011;21290;50.158;8.658;2024-03-08T08:14:28;21.45;;;17.63;;
35110;SDS011;21290;50.158;8.658;2024-03-08T08:17:19;20.70;;;16.30;;
35110;SDS011;21290;50.158;8.658;2024-03-08T08:19:46;20.48;;;17.13;;
35110;SDS011;21290;50.158;8.658;2024-03-08T08:22:31;18.23;;;16.30;;
35110;SDS011;21290;50.158;8.658;2024-03-08T08:25:03;22.98;;;18.23;;
35110;SDS011;21290;50.158;8.658;2024-03-08T08:31:05;25.70;;;19.80;;
35110;SDS011;21290;50.158;8.658;2024-03-08T08:33:41;19.45;;;17.02;;
35110;SDS011;21290;50.158;8.658;2024-03-08T08:36:10;22.10;;;16.38;;
35110;SDS011;21290;50.158;8.658;2024-03-08T08:38:37;21.08;;;17.05;;
35110;SDS011;21290;50.158;8.658;2024-03-08T08:41:04;18.35;;;16.35;;
35110;SDS011;21290;50.158;8.658;2024-03-08T08:43:32;19.50;;;16.63;;
35110;SDS011;21290;50.158;8.658;2024-03-08T08:46:00;21.07;;;17.90;;
35110;SDS011;21290;50.158;8.658;2024-03-08T08:48:27;20.00;;;16.20;;
35110;SDS011;21290;50.158;8.658;2024-03-08T08:50:55;17.73;;;15.93;;
35110;SDS011;21290;50.158;8.658;2024-03-08T08:56:16;16.92;;;14.85;;
35110;SDS011;21290;50.158;8.658;2024-03-08T08:58:45;17.80;;;15.90;;
35110;SDS011;21290;50.158;8.658;2024-03-08T09:01:38;19.90;;;14.93;;
35110;SDS011;21290;50.158;8.658;2024-03-08T09:04:05;17.13;;;15.30;;
35110;SDS011;21290;50.158;8.658;2024-03-08T09:07:06;17.17;;;15.38;;
35110;SDS011;21290;50.158;8.658;2024-03-08T09:09:42;20.10;;;15.38;;
35110;SDS011;21290;50.158;8.658;2024-03-08T09:12:14;17.13;;;15.32;;
35110;SDS011;21290;50.158;8.658;2024-03-08T09:14:58;18.08;;;15.43;;
35110;SDS011;21290;50.158;8.658;2024-03-08T09:17:25;16.90;;;15.10;;
35110;SDS011;21290;50.158;8.658;2024-03-08T09:19:52;18.42;;;15.23;;
35110;SDS011;21290;50.158;8.658;2024-03-08T09:25:34;17.77;;;14.63;;
35110;SDS011;21290;50.158;8.658;2024-03-08T09:31:48;15.75;;;14.05;;
35110;SDS011;21290;50.158;8.658;2024-03-08T09:34:15;16.98;;;14.77;;
35110;SDS011;21290;50.158;8.658;2024-03-08T09:36:52;15.65;;;14.05;;
35110;SDS011;21290;50.158;8.658;2024-03-08T09:39:31;16.60;;;14.77;;
35110;SDS011;21290;50.158;8.658;2024-03-08T09:41:59;15.60;;;14.00;;
35110;SDS011;21290;50.158;8.658;2024-03-08T09:44:27;18.80;;;13.93;;
35110;SDS011;21290;50.158;8.658;2024-03-08T09:46:55;19.27;;;15.13;;
35110;SDS011;21290;50.158;8.658;2024-03-08T09:49:24;16.08;;;14.38;;
35110;SDS011;21290;50.158;8.658;2024-03-08T09:51:51;16.17;;;14.48;;
35110;SDS011;21290;50.158;8.658;2024-03-08T09:54:19;17.27;;;15.40;;
35110;SDS011;21290;50.158;8.658;2024-03-08T09:56:50;14.60;;;12.65;;
35110;SDS011;21290;50.158;8.658;2024-03-08T09:59:18;13.48;;;12.05;;
35110;SDS011;21290;50.158;8.658;2024-03-08T10:01:54;13.65;;;11.75;;
35110;SDS011;21290;50.158;8.658;2024-03-08T10:04:23;15.75;;;13.55;;
35110;SDS011;21290;50.158;8.658;2024-03-08T10:06:50;15.18;;;13.57;;
35110;SDS011;21290;50.158;8.658;2024-03-08T10:09:17;14.35;;;11.73;;
35110;SDS011;21290;50.158;8.658;2024-03-08T10:11:45;12.35;;;11.05;;
35110;SDS011;21290;50.158;8.658;2024-03-08T10:14:12;12.07;;;10.68;;
35110;SDS011;21290;50.158;8.658;2024-03-08T10:16:39;12.90;;;11.57;;
35110;SDS011;21290;50.158;8.658;2024-03-08T10:19:06;12.75;;;11.15;;
35110;SDS011;21290;50.158;8.658;2024-03-08T10:21:34;12.35;;;11.05;;
35110;SDS011;21290;50.158;8.658;2024-03-08T10:24:02;12.85;;;11.45;;
35110;SDS011;21290;50.158;8.658;2024-03-08T10:26:29;12.73;;;11.43;;
35110;SDS011;21290;50.158;8.658;2024-03-08T10:28:57;15.55;;;11.43;;
35110;SDS011;21290;50.158;8.658;2024-03-08T10:31:24;13.35;;;11.15;;
35110;SDS011;21290;50.158;8.658;2024-03-08T10:33:51;13.60;;;11.40;;
35110;SDS011;21290;50.158;8.658;2024-03-08T10:36:18;15.07;;;10.57;;
35110;SDS011;21290;50.158;8.658;2024-03-08T10:38:45;14.13;;;11.50;;
35110;SDS011;21290;50.158;8.658;2024-03-08T10:41:14;11.77;;;10.18;;
35110;SDS011;21290;50.158;8.658;2024-03-08T10:46:50;12.73;;;10.73;;
35110;SDS011;21290;50.158;8.658;2024-03-08T10:49:32;11.15;;;10.05;;
35110;SDS011;21290;50.158;8.658;2024-03-08T10:52:05;11.80;;;10.60;;
35110;SDS011;21290;50.158;8.658;2024-03-08T10:54:36;12.35;;;11.00;;
35110;SDS011;21290;50.158;8.658;2024-03-08T10:57:10;12.30;;;10.63;;
35110;SDS011;21290;50.158;8.658;2024-03-08T10:59:39;11.82;;;10.60;;
35110;SDS011;21290;50.158;8.658;2024-03-08T11:02:08;12.80;;;10.00;;
35110;SDS011;21290;50.158;8.658;2024-03-08T11:04:38;11.70;;;10.50;;
35110;SDS011;21290;50.158;8.658;2024-03-08T11:07:11;11.35;;;10.15;;
35110;SDS011;21290;50.158;8.658;2024-03-08T11:09:43;13.90;;;10.18;;
35110;SDS011;21290;50.158;8.658;2024-03-08T11:12:18;11.30;;;9.40;;
35110;SDS011;21290;50.158;8.658;2024-03-08T11:14:47;12.15;;;10.27;;
35110;SDS011;21290;50.158;8.658;2024-03-08T11:17:20;11.13;;;9.95;;
35110;SDS011;21290;50.158;8.658;2024-03-08T11:19:49;11.52;;;10.32;;
35110;SDS011;21290;50.158;8.658;2024-03-08T11:22:22;11.52;;;10.30;;
35110;SDS011;21290;50.158;8.658;2024-03-08T11:24:57;11.25;;;9.45;;
35110;SDS011;21290;50.158;8.658;2024-03-08T11:27:31;10.68;;;9.57;;
35110;SDS011;21290;50.158;8.658;2024-03-08T11:29:59;11.25;;;10.05;;
35110;SDS011;21290;50.158;8.658;2024-03-08T11:32:44;12.00;;;9.55;;
35110;SDS011;21290;50.158;8.658;2024-03-08T11:35:19;13.88;;;9.88;;
35110;SDS011;21290;50.158;8.658;2024-03-08T11:37:49;10.98;;;9.85;;
35110;SDS011;21290;50.158;8.658;2024-03-08T11:40:18;10.63;;;9.32;;
35110;SDS011;21290;50.158;8.658;2024-03-08T11:42:46;10.70;;;9.60;;
35110;SDS011;21290;50.158;8.658;2024-03-08T11:45:15;14.95;;;9.27;;
35110;SDS011;21290;50.158;8.658;2024-03-08T11:47:44;11.60;;;9.07;;
35110;SDS011;21290;50.158;8.658;2024-03-08T11:50:14;9.88;;;8.88;;
35110;SDS011;21290;50.158;8.658;2024-03-08T11:52:42;12.48;;;9.70;;
35110;SDS011;21290;50.158;8.658;2024-03-08T11:55:10;11.07;;;9.18;;
35110;SDS011;21290;50.158;8.658;2024-03-08T11:57:39;11.38;;;9.25;;
35110;SDS011;21290;50.158;8.658;2024-03-08T12:00:14;11.15;;;9.75;;
35110;SDS011;21290;50.158;8.658;2024-03-08T12:03:06;10.70;;;9.60;;
35110;SDS011;21290;50.158;8.658;2024-03-08T12:05:35;11.55;;;10.25;;
35110;SDS011;21290;50.158;8.658;2024-03-08T12:08:02;13.27;;;10.30;;
35110;SDS011;21290;50.158;8.658;2024-03-08T12:10:31;13.13;;;11.10;;
35110;SDS011;21290;50.158;8.658;2024-03-08T12:12:58;18.40;;;11.75;;
35110;SDS011;21290;50.158;8.658;2024-03-08T12:15:26;15.88;;;11.57;;
35110;SDS011;21290;50.158;8.658;2024-03-08T12:17:55;15.25;;;11.13;;
35110;SDS011;21290;50.158;8.658;2024-03-08T12:20:24;17.73;;;11.30;;
35110;SDS011;21290;50.158;8.658;2024-03-08T12:22:55;14.73;;;11.32;;
35110;SDS011;21290;50.158;8.658;2024-03-08T12:25:33;14.10;;;11.75;;
35110;SDS011;21290;50.158;8.658;2024-03-08T12:28:09;18.30;;;12.63;;
35110;SDS011;21290;50.158;8.658;2024-03-08T12:30:47;16.15;;;12.13;;
35110;SDS011;21290;50.158;8.658;2024-03-08T12:33:17;16.70;;;11.88;;
35110;SDS011;21290;50.158;8.658;2024-03-08T12:35:51;16.45;;;12.18;;
35110;SDS011;21290;50.158;8.658;2024-03-08T12:38:22;17.83;;;12.30;;
35110;SDS011;21290;50.158;8.658;2024-03-08T12:40:57;17.52;;;11.93;;
35110;SDS011;21290;50.158;8.658;2024-03-08T12:43:25;15.95;;;12.05;;
35110;SDS011;21290;50.158;8.658;2024-03-08T12:45:52;16.85;;;11.75;;
35110;SDS011;21290;50.158;8.658;2024-03-08T12:48:19;15.13;;;11.80;;
35110;SDS011;21290;50.158;8.658;2024-03-08T12:50:46;15.48;;;11.63;;
35110;SDS011;21290;50.158;8.658;2024-03-08T12:53:14;18.83;;;11.73;;
35110;SDS011;21290;50.158;8.658;2024-03-08T12:55:41;16.75;;;12.35;;
35110;SDS011;21290;50.158;8.658;2024-03-08T12:58:08;18.50;;;13.50;;
35110;SDS011;21290;50.158;8.658;2024-03-08T13:00:35;19.88;;;13.50;;
35110;SDS011;21290;50.158;8.658;2024-03-08T13:03:03;16.17;;;12.02;;
35110;SDS011;21290;50.158;8.658;2024-03-08T13:05:29;18.92;;;12.70;;
35110;SDS011;21290;50.158;8.658;2024-03-08T13:07:56;17.38;;;12.27;;
35110;SDS011;21290;50.158;8.658;2024-03-08T13:10:23;23.33;;;12.15;;
35110;SDS011;21290;50.158;8.658;2024-03-08T13:12:50;21.45;;;12.93;;
35110;SDS011;21290;50.158;8.658;2024-03-08T13:15:20;19.10;;;12.85;;
35110;SDS011;21290;50.158;8.658;2024-03-08T13:17:47;15.95;;;12.30;;
35110;SDS011;21290;50.158;8.658;2024-03-08T13:20:17;16.92;;;12.82;;
35110;SDS011;21290;50.158;8.658;2024-03-08T13:22:56;17.75;;;12.70;;
35110;SDS011;21290;50.158;8.658;2024-03-08T13:25:25;21.20;;;13.93;;
35110;SDS011;21290;50.158;8.658;2024-03-08T13:27:52;18.33;;;13.13;;
35110;SDS011;21290;50.158;8.658;2024-03-08T13:30:22;20.27;;;13.90;;
35110;SDS011;21290;50.158;8.658;2024-03-08T13:32:51;18.47;;;13.07;;
35110;SDS011;21290;50.158;8.658;2024-03-08T13:35:19;24.88;;;14.32;;
35110;SDS011;21290;50.158;8.658;2024-03-08T13:37:51;17.60;;;13.18;;
35110;SDS011;21290;50.158;8.658;2024-03-08T13:40:18;16.40;;;12.95;;
35110;SDS011;21290;50.158;8.658;2024-03-08T13:42:48;17.42;;;12.48;;
35110;SDS011;21290;50.158;8.658;2024-03-08T13:45:17;17.48;;;13.63;;
35110;SDS011;21290;50.158;8.658;2024-03-08T13:47:48;20.45;;;13.70;;
35110;SDS011;21290;50.158;8.658;2024-03-08T13:50:17;19.42;;;13.30;;
35110;SDS011;21290;50.158;8.658;2024-03-08T13:52:50;20.90;;;13.20;;
35110;SDS011;21290;50.158;8.658;2024-03-08T13:55:20;18.33;;;14.07;;
35110;SDS011;21290;50.158;8.658;2024-03-08T13:57:48;18.80;;;12.60;;
35110;SDS011;21290;50.158;8.658;2024-03-08T14:00:17;23.40;;;14.18;;
35110;SDS011;21290;50.158;8.658;2024-03-08T14:02:47;17.30;;;12.52;;
35110;SDS011;21290;50.158;8.658;2024-03-08T14:05:15;19.17;;;13.52;;
35110;SDS011;21290;50.158;8.658;2024-03-08T14:07:42;17.98;;;13.00;;
35110;SDS011;21290;50.158;8.658;2024-03-08T14:10:12;18.35;;;14.05;;
35110;SDS011;21290;50.158;8.658;2024-03-08T14:12:43;19.27;;;13.38;;
35110;SDS011;21290;50.158;8.658;2024-03-08T14:15:10;19.77;;;14.13;;
35110;SDS011;21290;50.158;8.658;2024-03-08T14:17:38;17.98;;;13.25;;
35110;SDS011;21290;50.158;8.658;2024-03-08T14:20:06;18.98;;;13.07;;
35110;SDS011;21290;50.158;8.658;2024-03-08T14:22:34;17.77;;;12.68;;
35110;SDS011;21290;50.158;8.658;2024-03-08T14:25:01;19.85;;;13.93;;
35110;SDS011;21290;50.158;8.658;2024-03-08T14:27:31;21.15;;;13.32;;
35110;SDS011;21290;50.158;8.658;2024-03-08T14:29:59;21.38;;;13.43;;
35110;SDS011;21290;50.158;8.658;2024-03-08T14:32:28;16.90;;;12.65;;
35110;SDS011;21290;50.158;8.658;2024-03-08T14:34:56;17.10;;;12.10;;
35110;SDS011;21290;50.158;8.658;2024-03-08T14:37:25;15.53;;;11.80;;
35110;SDS011;21290;50.158;8.658;2024-03-08T14:39:55;35.80;;;14.00;;
35110;SDS011;21290;50.158;8.658;2024-03-08T14:42:22;19.95;;;12.52;;
35110;SDS011;21290;50.158;8.658;2024-03-08T14:44:49;18.27;;;12.85;;
35110;SDS011;21290;50.158;8.658;2024-03-08T14:47:20;18.30;;;12.32;;
35110;SDS011;21290;50.158;8.658;2024-03-08T14:49:50;16.83;;;12.43;;
35110;SDS011;21290;50.158;8.658;2024-03-08T14:52:18;19.30;;;12.60;;
35110;SDS011;21290;50.158;8.658;2024-03-08T14:54:54;22.20;;;12.90;;
35110;SDS011;21290;50.158;8.658;2024-03-08T14:57:22;17.88;;;12.23;;
35110;SDS011;21290;50.158;8.658;2024-03-08T14:59:49;18.65;;;12.73;;
35110;SDS011;21290;50.158;8.658;2024-03-08T15:02:16;20.17;;;12.10;;
35110;SDS011;21290;50.158;8.658;2024-03-08T15:04:48;17.35;;;12.60;;
35110;SDS011;21290;50.158;8.658;2024-03-08T15:07:24;18.58;;;12.13;;
35110;SDS011;21290;50.158;8.658;2024-03-08T15:09:57;17.52;;;13.13;;